Impacts METAR Board
IDs:

KMDW - Chicago/Midway Intl, IL, US

Updated at: 1200 UTC 16 Sep 2019
Potential Impact None Slight Moderate High
Time 16/00Z 16/01Z 16/02Z 16/03Z 16/04Z 16/05Z 16/06Z 16/07Z 16/08Z 16/09Z 16/10Z 16/11Z 16/12Z
Temp77 76 76 74 73 72 72 71 72 71 70 71 71
Dewpt69 70 70 69 69 69 69 69 69 69 68 69 69
Altim30.00 30.00 30.01 30.02 30.03 30.02 30.03 30.03 30.04 30.04 30.06 30.07 30.09
VIS10 10 10 10 10 10 10 10 9 8 8 8 6
CIG26 34 34 -- -- -- -- 40 33 -- -- 31 8
CoverOVCBKNBKNFEWFEWFEWFEWBKNBKNSCTFEWBKNOVC
FltCatMVFRVFRVFRVFRVFRVFRVFRVFRVFRVFRVFRVFRIFR
WX------------------------BR
WDir2001901801802202200003503402020
WSpd5 4 4 5 3 5 0 0 0 3 3 6 7
WGst-- -- -- -- -- -- -- -- -- -- -- -- --
Raw hourly METARs
KMDW 152353Z 20005KT 10SM BKN026 BKN032 OVC065 25/21 A3000 RMK AO2 RAB13E44 SLP152 P0000 60000 T02500206 10256 20217 51007 $
KMDW 160053Z 19004KT 10SM BKN034 BKN041 BKN055 24/21 A3000 RMK AO2 SLP153 T02440211 $
KMDW 160153Z 18004KT 10SM FEW028 BKN034 24/21 A3001 RMK AO2 SLP155 T02440211 $
KMDW 160253Z 18005KT 10SM FEW026 FEW036 23/21 A3002 RMK AO2 SLP157 T02330206 53005 $
KMDW 160353Z 22003KT 10SM FEW026 FEW036 23/21 A3003 RMK AO2 SLP160 T02280206 $
KMDW 160453Z 22005KT 10SM FEW026 FEW036 22/21 A3002 RMK AO2 SLP160 T02220206 $
KMDW 160553Z 00000KT 10SM FEW026 FEW036 FEW060 22/21 A3003 RMK AO2 SLP160 T02220206 10250 20217 402560178 51003 $
KMDW 160653Z 00000KT 10SM BKN040 22/21 A3003 RMK AO2 SLP162 T02170206 $
KMDW 160753Z 00000KT 9SM BKN033 BKN043 BKN050 22/21 A3004 RMK AO2 SLP163 T02220206 $
KMDW 160853Z 35003KT 8SM SCT024 SCT029 SCT036 22/21 A3004 RMK AO2 SLP165 T02170206 51006 $
KMDW 160953Z 34003KT 8SM FEW024 FEW029 FEW047 21/20 A3006 RMK AO2 SLP171 T02110200 $
KMDW 161053Z 02006KT 8SM FEW008 BKN031 BKN040 22/21 A3007 RMK AO2 SLP173 T02170206 $
KMDW 161153Z 02007KT 6SM BR OVC008 22/21 A3009 RMK AO2 SLP180 70015 T02170206 10222 20211 53015



Page loaded:  12:04 UTC  |   05:04 AM Pacific  |   06:04 AM Mountain  |   07:04 AM Central  |   08:04 AM Eastern

 

ADVISORIES

FORECASTS

FORECASTS

OBSERVATIONS

USER TOOLS

ABOUT US